sensor_id;sensor_type;location;lat;lon;timestamp;pressure;altitude;pressure_sealevel;temperature;humidity
11971;BME280;6045;42.682;23.294;2024-03-06T00:00:04;94413.69;;;8.29;78.39
11971;BME280;6045;42.682;23.294;2024-03-06T00:02:34;94409.25;;;8.41;78.49
11971;BME280;6045;42.682;23.294;2024-03-06T00:05:01;94410.28;;;8.40;78.29
11971;BME280;6045;42.682;23.294;2024-03-06T00:07:28;94409.69;;;8.38;78.54
11971;BME280;6045;42.682;23.294;2024-03-06T00:09:55;94411.59;;;8.49;78.44
11971;BME280;6045;42.682;23.294;2024-03-06T00:12:22;94407.38;;;8.41;77.77
11971;BME280;6045;42.682;23.294;2024-03-06T00:14:49;94408.34;;;8.47;77.53
11971;BME280;6045;42.682;23.294;2024-03-06T00:17:17;94401.38;;;8.46;77.41
11971;BME280;6045;42.682;23.294;2024-03-06T00:19:44;94407.59;;;8.40;77.26
11971;BME280;6045;42.682;23.294;2024-03-06T00:22:11;94413.84;;;8.34;77.36
11971;BME280;6045;42.682;23.294;2024-03-06T00:24:38;94407.19;;;8.18;77.29
11971;BME280;6045;42.682;23.294;2024-03-06T00:27:05;94399.25;;;7.93;78.05
11971;BME280;6045;42.682;23.294;2024-03-06T00:29:32;94403.59;;;7.63;79.22
11971;BME280;6045;42.682;23.294;2024-03-06T00:32:01;94398.81;;;7.47;80.39
11971;BME280;6045;42.682;23.294;2024-03-06T00:34:30;94402.88;;;7.25;81.13
11971;BME280;6045;42.682;23.294;2024-03-06T00:36:57;94406.38;;;7.19;81.71
11971;BME280;6045;42.682;23.294;2024-03-06T00:39:24;94403.19;;;7.04;82.53
11971;BME280;6045;42.682;23.294;2024-03-06T00:41:51;94401.97;;;7.00;83.10
11971;BME280;6045;42.682;23.294;2024-03-06T00:44:18;94404.03;;;6.98;83.30
11971;BME280;6045;42.682;23.294;2024-03-06T00:46:45;94404.81;;;7.05;83.45
11971;BME280;6045;42.682;23.294;2024-03-06T00:49:12;94408.25;;;7.12;83.00
11971;BME280;6045;42.682;23.294;2024-03-06T00:51:41;94411.47;;;7.20;82.75
11971;BME280;6045;42.682;23.294;2024-03-06T00:54:08;94406.13;;;7.27;82.28
11971;BME280;6045;42.682;23.294;2024-03-06T00:56:37;94405.78;;;7.17;82.60
11971;BME280;6045;42.682;23.294;2024-03-06T00:59:04;94410.84;;;7.25;82.66
11971;BME280;6045;42.682;23.294;2024-03-06T01:01:31;94408.59;;;7.22;82.51
11971;BME280;6045;42.682;23.294;2024-03-06T01:03:59;94408.13;;;7.31;82.45
11971;BME280;6045;42.682;23.294;2024-03-06T01:06:26;94414.69;;;7.29;82.10
11971;BME280;6045;42.682;23.294;2024-03-06T01:08:55;94412.69;;;7.24;82.06
11971;BME280;6045;42.682;23.294;2024-03-06T01:11:22;94411.47;;;7.20;82.26
11971;BME280;6045;42.682;23.294;2024-03-06T01:13:49;94417.25;;;7.11;82.50
11971;BME280;6045;42.682;23.294;2024-03-06T01:16:16;94408.72;;;7.02;82.65
11971;BME280;6045;42.682;23.294;2024-03-06T01:18:43;94413.69;;;6.85;83.41
11971;BME280;6045;42.682;23.294;2024-03-06T01:21:10;94410.09;;;6.73;83.96
11971;BME280;6045;42.682;23.294;2024-03-06T01:23:37;94414.00;;;6.64;84.64
11971;BME280;6045;42.682;23.294;2024-03-06T01:26:05;94409.59;;;6.52;85.07
11971;BME280;6045;42.682;23.294;2024-03-06T01:28:32;94402.59;;;6.64;85.14
11971;BME280;6045;42.682;23.294;2024-03-06T01:30:59;94400.09;;;6.75;84.77
11971;BME280;6045;42.682;23.294;2024-03-06T01:33:26;94401.47;;;6.84;84.61
11971;BME280;6045;42.682;23.294;2024-03-06T01:35:53;94399.16;;;6.95;83.98
11971;BME280;6045;42.682;23.294;2024-03-06T01:38:20;94403.81;;;7.06;83.10
11971;BME280;6045;42.682;23.294;2024-03-06T01:40:47;94407.81;;;7.15;82.30
11971;BME280;6045;42.682;23.294;2024-03-06T01:43:22;94404.09;;;7.22;81.92
11971;BME280;6045;42.682;23.294;2024-03-06T01:45:51;94399.97;;;7.26;81.20
11971;BME280;6045;42.682;23.294;2024-03-06T01:48:20;94404.06;;;7.29;81.16
11971;BME280;6045;42.682;23.294;2024-03-06T01:50:48;94404.47;;;7.32;80.97
11971;BME280;6045;42.682;23.294;2024-03-06T01:53:16;94403.81;;;7.37;80.76
11971;BME280;6045;42.682;23.294;2024-03-06T01:55:45;94408.91;;;7.38;80.46
11971;BME280;6045;42.682;23.294;2024-03-06T01:58:12;94411.13;;;7.41;80.54
11971;BME280;6045;42.682;23.294;2024-03-06T02:00:40;94406.78;;;7.47;80.62
11971;BME280;6045;42.682;23.294;2024-03-06T02:03:08;94403.94;;;7.48;80.14
11971;BME280;6045;42.682;23.294;2024-03-06T02:05:35;94408.41;;;7.48;79.83
11971;BME280;6045;42.682;23.294;2024-03-06T02:08:03;94414.75;;;7.47;79.58
11971;BME280;6045;42.682;23.294;2024-03-06T02:10:31;94418.66;;;7.44;79.42
11971;BME280;6045;42.682;23.294;2024-03-06T02:12:58;94423.59;;;7.41;79.54
11971;BME280;6045;42.682;23.294;2024-03-06T02:15:25;94422.38;;;7.43;79.51
11971;BME280;6045;42.682;23.294;2024-03-06T02:17:53;94418.28;;;7.41;79.85
11971;BME280;6045;42.682;23.294;2024-03-06T02:20:24;94420.56;;;7.37;80.21
11971;BME280;6045;42.682;23.294;2024-03-06T02:22:51;94428.41;;;7.26;80.18
11971;BME280;6045;42.682;23.294;2024-03-06T02:25:18;94430.28;;;7.19;80.28
11971;BME280;6045;42.682;23.294;2024-03-06T02:27:45;94431.94;;;7.20;80.33
11971;BME280;6045;42.682;23.294;2024-03-06T02:30:13;94432.34;;;7.17;80.15
11971;BME280;6045;42.682;23.294;2024-03-06T02:32:40;94439.31;;;7.18;80.56
11971;BME280;6045;42.682;23.294;2024-03-06T02:35:09;94438.94;;;7.08;80.95
11971;BME280;6045;42.682;23.294;2024-03-06T02:37:37;94434.88;;;7.05;81.29
11971;BME280;6045;42.682;23.294;2024-03-06T02:40:06;94441.00;;;7.06;81.48
11971;BME280;6045;42.682;23.294;2024-03-06T02:42:35;94443.44;;;7.07;81.17
11971;BME280;6045;42.682;23.294;2024-03-06T02:45:05;94445.13;;;7.02;81.14
11971;BME280;6045;42.682;23.294;2024-03-06T02:47:32;94448.75;;;7.07;80.59
11971;BME280;6045;42.682;23.294;2024-03-06T02:50:18;94437.75;;;7.04;80.94
11971;BME280;6045;42.682;23.294;2024-03-06T02:52:47;94439.41;;;6.98;81.23
11971;BME280;6045;42.682;23.294;2024-03-06T02:55:14;94441.81;;;7.00;80.78
11971;BME280;6045;42.682;23.294;2024-03-06T02:57:41;94435.31;;;6.96;80.86
11971;BME280;6045;42.682;23.294;2024-03-06T03:00:09;94440.25;;;6.92;81.28
11971;BME280;6045;42.682;23.294;2024-03-06T03:02:38;94449.66;;;6.95;81.11
11971;BME280;6045;42.682;23.294;2024-03-06T03:05:06;94442.69;;;6.94;80.98
11971;BME280;6045;42.682;23.294;2024-03-06T03:07:33;94441.03;;;6.93;80.83
11971;BME280;6045;42.682;23.294;2024-03-06T03:10:02;94450.88;;;6.85;80.94
11971;BME280;6045;42.682;23.294;2024-03-06T03:12:30;94447.22;;;6.86;80.93
11971;BME280;6045;42.682;23.294;2024-03-06T03:14:56;94449.47;;;6.89;80.85
11971;BME280;6045;42.682;23.294;2024-03-06T03:17:24;94441.03;;;6.93;80.43
11971;BME280;6045;42.682;23.294;2024-03-06T03:19:51;94446.34;;;6.93;80.50
11971;BME280;6045;42.682;23.294;2024-03-06T03:22:18;94447.41;;;6.92;80.37
11971;BME280;6045;42.682;23.294;2024-03-06T03:24:44;94455.38;;;6.92;80.30
11971;BME280;6045;42.682;23.294;2024-03-06T03:27:14;94455.38;;;6.92;80.09
11971;BME280;6045;42.682;23.294;2024-03-06T03:29:41;94456.59;;;6.89;80.28
11971;BME280;6045;42.682;23.294;2024-03-06T03:32:08;94455.78;;;6.88;80.11
11971;BME280;6045;42.682;23.294;2024-03-06T03:34:35;94464.00;;;6.80;80.20
11971;BME280;6045;42.682;23.294;2024-03-06T03:37:02;94459.31;;;6.82;80.23
11971;BME280;6045;42.682;23.294;2024-03-06T03:39:29;94459.50;;;6.81;79.98
11971;BME280;6045;42.682;23.294;2024-03-06T03:41:56;94459.53;;;6.74;80.04
11971;BME280;6045;42.682;23.294;2024-03-06T03:44:25;94460.34;;;6.75;80.23
11971;BME280;6045;42.682;23.294;2024-03-06T03:46:52;94459.53;;;6.74;80.32
11971;BME280;6045;42.682;23.294;2024-03-06T03:49:19;94461.16;;;6.75;80.35
11971;BME280;6045;42.682;23.294;2024-03-06T03:51:46;94462.19;;;6.74;80.25
11971;BME280;6045;42.682;23.294;2024-03-06T03:54:13;94465.88;;;6.73;80.13
11971;BME280;6045;42.682;23.294;2024-03-06T03:56:40;94469.75;;;6.71;80.45
11971;BME280;6045;42.682;23.294;2024-03-06T03:59:07;94466.06;;;6.72;80.23
11971;BME280;6045;42.682;23.294;2024-03-06T04:01:35;94467.91;;;6.71;80.20
11971;BME280;6045;42.682;23.294;2024-03-06T04:04:02;94470.56;;;6.71;80.08
11971;BME280;6045;42.682;23.294;2024-03-06T04:06:29;94465.69;;;6.68;80.15
11971;BME280;6045;42.682;23.294;2024-03-06T04:08:56;94474.25;;;6.70;80.20
11971;BME280;6045;42.682;23.294;2024-03-06T04:11:23;94481.19;;;6.71;80.08
11971;BME280;6045;42.682;23.294;2024-03-06T04:13:50;94478.34;;;6.73;79.95
11971;BME280;6045;42.682;23.294;2024-03-06T04:16:17;94475.06;;;6.71;79.48
11971;BME280;6045;42.682;23.294;2024-03-06T04:18:46;94484.69;;;6.65;79.77
11971;BME280;6045;42.682;23.294;2024-03-06T04:21:13;94488.97;;;6.66;80.02
11971;BME280;6045;42.682;23.294;2024-03-06T04:23:41;94489.78;;;6.67;79.83
11971;BME280;6045;42.682;23.294;2024-03-06T04:26:08;94493.47;;;6.66;79.79
11971;BME280;6045;42.682;23.294;2024-03-06T04:28:35;94494.91;;;6.68;79.92
11971;BME280;6045;42.682;23.294;2024-03-06T04:31:02;94501.00;;;6.69;79.75
11971;BME280;6045;42.682;23.294;2024-03-06T04:33:29;94506.53;;;6.67;79.88
11971;BME280;6045;42.682;23.294;2024-03-06T04:35:57;94508.19;;;6.68;79.92
11971;BME280;6045;42.682;23.294;2024-03-06T04:38:24;94501.81;;;6.69;79.96
11971;BME280;6045;42.682;23.294;2024-03-06T04:40:51;94497.34;;;6.70;80.12
11971;BME280;6045;42.682;23.294;2024-03-06T04:43:18;94506.94;;;6.64;79.84
11971;BME280;6045;42.682;23.294;2024-03-06T04:45:45;94511.47;;;6.64;80.10
11971;BME280;6045;42.682;23.294;2024-03-06T04:48:12;94520.84;;;6.66;79.95
11971;BME280;6045;42.682;23.294;2024-03-06T04:50:39;94518.59;;;6.63;79.87
11971;BME280;6045;42.682;23.294;2024-03-06T04:53:08;94512.09;;;6.59;79.71
11971;BME280;6045;42.682;23.294;2024-03-06T04:55:36;94514.94;;;6.58;79.71
11971;BME280;6045;42.682;23.294;2024-03-06T04:58:04;94515.97;;;6.57;79.83
11971;BME280;6045;42.682;23.294;2024-03-06T05:00:31;94518.34;;;6.84;87.28
11971;BME280;6045;42.682;23.294;2024-03-06T05:02:58;94526.41;;;7.09;90.18
11971;BME280;6045;42.682;23.294;2024-03-06T05:05:27;94515.25;;;6.94;83.37
11971;BME280;6045;42.682;23.294;2024-03-06T05:07:54;94522.78;;;6.90;81.20
11971;BME280;6045;42.682;23.294;2024-03-06T05:10:23;94516.25;;;6.93;80.62
11971;BME280;6045;42.682;23.294;2024-03-06T05:12:51;94524.63;;;6.97;80.03
11971;BME280;6045;42.682;23.294;2024-03-06T05:15:19;94523.63;;;6.91;79.17
11971;BME280;6045;42.682;23.294;2024-03-06T05:17:46;94529.94;;;6.97;79.38
11971;BME280;6045;42.682;23.294;2024-03-06T05:20:13;94528.09;;;7.04;79.34
11971;BME280;6045;42.682;23.294;2024-03-06T05:22:44;94528.00;;;7.17;79.25
11971;BME280;6045;42.682;23.294;2024-03-06T05:25:14;94531.00;;;7.33;80.11
11971;BME280;6045;42.682;23.294;2024-03-06T05:27:43;94527.91;;;7.43;79.84
11971;BME280;6045;42.682;23.294;2024-03-06T05:30:10;94528.44;;;7.58;78.86
11971;BME280;6045;42.682;23.294;2024-03-06T05:32:38;94521.81;;;7.67;77.64
11971;BME280;6045;42.682;23.294;2024-03-06T05:35:05;94522.38;;;7.76;77.45
11971;BME280;6045;42.682;23.294;2024-03-06T05:37:35;94535.94;;;7.68;77.95
11971;BME280;6045;42.682;23.294;2024-03-06T05:40:02;94534.44;;;7.78;77.94
11971;BME280;6045;42.682;23.294;2024-03-06T05:42:31;94535.19;;;7.85;77.91
11971;BME280;6045;42.682;23.294;2024-03-06T05:44:59;94542.25;;;7.73;77.50
11971;BME280;6045;42.682;23.294;2024-03-06T05:47:31;94544.47;;;7.76;77.80
11971;BME280;6045;42.682;23.294;2024-03-06T05:49:58;94544.84;;;7.80;77.86
11971;BME280;6045;42.682;23.294;2024-03-06T05:52:25;94549.97;;;7.81;77.40
11971;BME280;6045;42.682;23.294;2024-03-06T05:54:52;94539.75;;;7.78;77.66
11971;BME280;6045;42.682;23.294;2024-03-06T05:57:19;94543.28;;;7.72;77.72
11971;BME280;6045;42.682;23.294;2024-03-06T05:59:46;94547.91;;;7.83;77.60
11971;BME280;6045;42.682;23.294;2024-03-06T06:02:14;94555.47;;;7.86;76.74
11971;BME280;6045;42.682;23.294;2024-03-06T06:04:41;94559.03;;;7.74;77.46
11971;BME280;6045;42.682;23.294;2024-03-06T06:07:10;94556.59;;;7.72;78.02
11971;BME280;6045;42.682;23.294;2024-03-06T06:09:36;94554.81;;;7.91;82.44
11971;BME280;6045;42.682;23.294;2024-03-06T06:12:04;94561.94;;;7.97;79.46
11971;BME280;6045;42.682;23.294;2024-03-06T06:14:31;94561.25;;;7.77;78.56
11971;BME280;6045;42.682;23.294;2024-03-06T06:16:58;94556.66;;;7.90;77.62
11971;BME280;6045;42.682;23.294;2024-03-06T06:19:27;94556.63;;;7.97;77.11
11971;BME280;6045;42.682;23.294;2024-03-06T06:21:54;94552.63;;;7.81;77.67
11971;BME280;6045;42.682;23.294;2024-03-06T06:24:21;94556.19;;;8.24;86.66
11971;BME280;6045;42.682;23.294;2024-03-06T06:26:48;94549.66;;;8.52;80.97
11971;BME280;6045;42.682;23.294;2024-03-06T06:29:15;94553.56;;;8.92;77.07
11971;BME280;6045;42.682;23.294;2024-03-06T06:31:42;94544.38;;;9.24;74.65
11971;BME280;6045;42.682;23.294;2024-03-06T06:34:10;94546.69;;;9.69;73.32
11971;BME280;6045;42.682;23.294;2024-03-06T06:36:38;94550.06;;;9.94;72.22
11971;BME280;6045;42.682;23.294;2024-03-06T06:39:08;94547.38;;;10.23;70.56
11971;BME280;6045;42.682;23.294;2024-03-06T06:41:36;94548.09;;;10.54;69.40
11971;BME280;6045;42.682;23.294;2024-03-06T06:44:03;94550.44;;;10.85;68.98
11971;BME280;6045;42.682;23.294;2024-03-06T06:46:30;94554.63;;;11.04;67.06
11971;BME280;6045;42.682;23.294;2024-03-06T06:48:57;94548.28;;;11.33;67.75
11971;BME280;6045;42.682;23.294;2024-03-06T06:51:24;94548.03;;;11.86;65.77
11971;BME280;6045;42.682;23.294;2024-03-06T06:53:58;94544.97;;;12.89;84.25
11971;BME280;6045;42.682;23.294;2024-03-06T06:56:24;94551.09;;;13.39;71.57
11971;BME280;6045;42.682;23.294;2024-03-06T06:58:51;94556.88;;;13.53;61.00
11971;BME280;6045;42.682;23.294;2024-03-06T07:01:18;94565.94;;;13.68;59.40
11971;BME280;6045;42.682;23.294;2024-03-06T07:03:45;94556.19;;;13.84;58.84
11971;BME280;6045;42.682;23.294;2024-03-06T07:06:12;94555.97;;;14.12;57.13
11971;BME280;6045;42.682;23.294;2024-03-06T07:08:39;94556.00;;;14.39;56.17
11971;BME280;6045;42.682;23.294;2024-03-06T07:11:08;94557.75;;;14.28;56.30
11971;BME280;6045;42.682;23.294;2024-03-06T07:13:36;94556.59;;;14.19;56.40
11971;BME280;6045;42.682;23.294;2024-03-06T07:16:03;94562.78;;;14.20;57.08
11971;BME280;6045;42.682;23.294;2024-03-06T07:18:34;94556.69;;;14.56;55.41
11971;BME280;6045;42.682;23.294;2024-03-06T07:21:01;94559.50;;;14.39;56.27
11971;BME280;6045;42.682;23.294;2024-03-06T07:23:30;94562.41;;;14.33;56.16
11971;BME280;6045;42.682;23.294;2024-03-06T07:25:57;94559.75;;;14.38;55.60
11971;BME280;6045;42.682;23.294;2024-03-06T07:28:26;94561.50;;;14.27;54.99
11971;BME280;6045;42.682;23.294;2024-03-06T07:30:52;94561.84;;;14.09;56.37
11971;BME280;6045;42.682;23.294;2024-03-06T07:33:19;94554.25;;;14.01;56.74
11971;BME280;6045;42.682;23.294;2024-03-06T07:35:47;94556.03;;;14.17;56.68
11971;BME280;6045;42.682;23.294;2024-03-06T07:38:14;94556.97;;;14.55;56.51
11971;BME280;6045;42.682;23.294;2024-03-06T07:40:41;94554.91;;;14.67;55.40
11971;BME280;6045;42.682;23.294;2024-03-06T07:43:08;94558.13;;;15.00;54.20
11971;BME280;6045;42.682;23.294;2024-03-06T07:45:38;94559.09;;;15.21;54.28
11971;BME280;6045;42.682;23.294;2024-03-06T07:48:05;94556.19;;;15.80;51.07
11971;BME280;6045;42.682;23.294;2024-03-06T07:50:33;94557.69;;;15.55;52.34
11971;BME280;6045;42.682;23.294;2024-03-06T07:53:00;94558.88;;;15.74;52.29
11971;BME280;6045;42.682;23.294;2024-03-06T07:55:27;94547.66;;;16.08;49.83
11971;BME280;6045;42.682;23.294;2024-03-06T07:57:54;94553.31;;;16.01;51.61
11971;BME280;6045;42.682;23.294;2024-03-06T08:00:21;94545.56;;;16.20;50.44
11971;BME280;6045;42.682;23.294;2024-03-06T08:02:50;94555.88;;;16.58;49.15
11971;BME280;6045;42.682;23.294;2024-03-06T08:05:17;94551.53;;;16.47;50.97
11971;BME280;6045;42.682;23.294;2024-03-06T08:07:45;94551.00;;;16.50;49.63
11971;BME280;6045;42.682;23.294;2024-03-06T08:10:12;94558.88;;;16.72;48.96
11971;BME280;6045;42.682;23.294;2024-03-06T08:12:40;94556.19;;;16.77;50.38
11971;BME280;6045;42.682;23.294;2024-03-06T08:15:09;94561.84;;;17.10;66.28
11971;BME280;6045;42.682;23.294;2024-03-06T08:17:38;94560.88;;;17.91;75.92
11971;BME280;6045;42.682;23.294;2024-03-06T08:20:08;94560.22;;;18.19;52.54
11971;BME280;6045;42.682;23.294;2024-03-06T08:22:38;94557.94;;;18.85;63.02
11971;BME280;6045;42.682;23.294;2024-03-06T08:25:06;94556.75;;;19.30;62.12
11971;BME280;6045;42.682;23.294;2024-03-06T08:27:34;94562.09;;;19.68;55.08
11971;BME280;6045;42.682;23.294;2024-03-06T08:30:02;94562.56;;;20.23;53.90
11971;BME280;6045;42.682;23.294;2024-03-06T08:32:30;94553.63;;;19.12;48.32
11971;BME280;6045;42.682;23.294;2024-03-06T08:35:02;94559.19;;;19.84;45.04
11971;BME280;6045;42.682;23.294;2024-03-06T08:37:32;94556.00;;;19.53;43.44
11971;BME280;6045;42.682;23.294;2024-03-06T08:39:59;94557.13;;;19.18;42.21
11971;BME280;6045;42.682;23.294;2024-03-06T08:42:26;94560.94;;;17.75;47.25
11971;BME280;6045;42.682;23.294;2024-03-06T08:44:53;94566.81;;;17.88;47.96
11971;BME280;6045;42.682;23.294;2024-03-06T08:47:20;94552.03;;;18.34;50.04
11971;BME280;6045;42.682;23.294;2024-03-06T08:49:47;94557.13;;;17.87;47.46
11971;BME280;6045;42.682;23.294;2024-03-06T08:52:14;94552.06;;;17.45;47.33
11971;BME280;6045;42.682;23.294;2024-03-06T08:54:45;94553.53;;;18.06;51.36
11971;BME280;6045;42.682;23.294;2024-03-06T08:57:12;94545.75;;;18.43;46.36
11971;BME280;6045;42.682;23.294;2024-03-06T08:59:39;94546.78;;;18.53;48.36
11971;BME280;6045;42.682;23.294;2024-03-06T09:02:13;94561.09;;;19.31;46.48
11971;BME280;6045;42.682;23.294;2024-03-06T09:04:40;94558.72;;;19.76;44.35
11971;BME280;6045;42.682;23.294;2024-03-06T09:07:09;94557.38;;;19.50;44.09
11971;BME280;6045;42.682;23.294;2024-03-06T09:09:37;94558.44;;;19.21;44.96
11971;BME280;6045;42.682;23.294;2024-03-06T09:12:06;94560.22;;;19.40;44.21
11971;BME280;6045;42.682;23.294;2024-03-06T09:14:36;94554.34;;;19.28;42.71
11971;BME280;6045;42.682;23.294;2024-03-06T09:17:03;94557.97;;;19.47;46.35
11971;BME280;6045;42.682;23.294;2024-03-06T09:19:31;94555.66;;;20.30;46.13
11971;BME280;6045;42.682;23.294;2024-03-06T09:21:58;94554.44;;;21.16;44.06
11971;BME280;6045;42.682;23.294;2024-03-06T09:24:25;94551.59;;;21.86;42.24
11971;BME280;6045;42.682;23.294;2024-03-06T09:26:53;94550.75;;;22.26;37.06
11971;BME280;6045;42.682;23.294;2024-03-06T09:29:22;94558.88;;;21.58;38.96
11971;BME280;6045;42.682;23.294;2024-03-06T09:31:49;94546.44;;;21.98;39.65
11971;BME280;6045;42.682;23.294;2024-03-06T09:34:19;94543.59;;;22.43;37.61
11971;BME280;6045;42.682;23.294;2024-03-06T09:36:48;94550.34;;;23.17;38.39
11971;BME280;6045;42.682;23.294;2024-03-06T09:39:17;94546.03;;;23.17;38.07
11971;BME280;6045;42.682;23.294;2024-03-06T09:41:46;94548.00;;;23.02;35.95
11971;BME280;6045;42.682;23.294;2024-03-06T09:44:16;94539.25;;;22.56;36.80
11971;BME280;6045;42.682;23.294;2024-03-06T09:46:46;94546.19;;;23.20;36.14
11971;BME280;6045;42.682;23.294;2024-03-06T09:49:16;94540.25;;;22.96;38.38
11971;BME280;6045;42.682;23.294;2024-03-06T09:51:44;94538.53;;;22.64;33.28
11971;BME280;6045;42.682;23.294;2024-03-06T09:54:12;94538.81;;;22.00;36.46
11971;BME280;6045;42.682;23.294;2024-03-06T09:56:41;94529.25;;;21.70;36.53
11971;BME280;6045;42.682;23.294;2024-03-06T09:59:10;94536.19;;;21.49;35.69
11971;BME280;6045;42.682;23.294;2024-03-06T10:01:43;94528.34;;;21.15;37.38
11971;BME280;6045;42.682;23.294;2024-03-06T10:04:20;94524.69;;;21.06;38.47
11971;BME280;6045;42.682;23.294;2024-03-06T10:06:47;94519.75;;;21.08;37.16
11971;BME280;6045;42.682;23.294;2024-03-06T10:09:17;94519.75;;;21.27;37.15
11971;BME280;6045;42.682;23.294;2024-03-06T10:11:44;94510.53;;;21.68;36.00
11971;BME280;6045;42.682;23.294;2024-03-06T10:14:11;94504.78;;;21.70;35.14
11971;BME280;6045;42.682;23.294;2024-03-06T10:16:51;94507.91;;;21.50;36.33
11971;BME280;6045;42.682;23.294;2024-03-06T10:19:21;94509.16;;;21.39;34.27
11971;BME280;6045;42.682;23.294;2024-03-06T10:21:49;94508.31;;;21.98;37.08
11971;BME280;6045;42.682;23.294;2024-03-06T10:24:19;94498.06;;;21.95;33.38
11971;BME280;6045;42.682;23.294;2024-03-06T10:26:48;94501.69;;;22.53;33.98
11971;BME280;6045;42.682;23.294;2024-03-06T10:29:16;94506.81;;;22.32;33.42
11971;BME280;6045;42.682;23.294;2024-03-06T10:31:48;94492.53;;;23.07;34.58
11971;BME280;6045;42.682;23.294;2024-03-06T10:34:16;94495.25;;;22.85;32.37
11971;BME280;6045;42.682;23.294;2024-03-06T10:36:44;94482.13;;;22.51;32.82
11971;BME280;6045;42.682;23.294;2024-03-06T10:39:12;94485.13;;;22.27;32.63
11971;BME280;6045;42.682;23.294;2024-03-06T10:41:40;94479.00;;;22.08;33.01
11971;BME280;6045;42.682;23.294;2024-03-06T10:44:11;94487.88;;;22.63;31.02
11971;BME280;6045;42.682;23.294;2024-03-06T10:46:45;94478.31;;;21.89;33.21
11971;BME280;6045;42.682;23.294;2024-03-06T10:49:13;94472.22;;;22.19;33.06
11971;BME280;6045;42.682;23.294;2024-03-06T10:51:42;94470.09;;;22.30;33.90
11971;BME280;6045;42.682;23.294;2024-03-06T10:54:11;94465.09;;;23.34;30.91
11971;BME280;6045;42.682;23.294;2024-03-06T10:56:40;94463.69;;;23.37;31.39
11971;BME280;6045;42.682;23.294;2024-03-06T10:59:11;94456.66;;;23.75;30.94
11971;BME280;6045;42.682;23.294;2024-03-06T11:01:39;94447.22;;;24.63;28.97
11971;BME280;6045;42.682;23.294;2024-03-06T11:04:09;94444.72;;;25.30;27.97
11971;BME280;6045;42.682;23.294;2024-03-06T11:06:37;94443.06;;;25.63;27.24
11971;BME280;6045;42.682;23.294;2024-03-06T11:09:04;94435.78;;;24.70;27.98
11971;BME280;6045;42.682;23.294;2024-03-06T11:11:47;94429.84;;;24.85;29.25
11971;BME280;6045;42.682;23.294;2024-03-06T11:14:15;94427.31;;;25.90;27.73
11971;BME280;6045;42.682;23.294;2024-03-06T11:16:57;94424.28;;;25.45;27.58
11971;BME280;6045;42.682;23.294;2024-03-06T11:19:24;94424.91;;;25.42;28.50
11971;BME280;6045;42.682;23.294;2024-03-06T11:21:51;94422.16;;;25.88;27.09
11971;BME280;6045;42.682;23.294;2024-03-06T11:24:19;94416.59;;;25.76;26.16
11971;BME280;6045;42.682;23.294;2024-03-06T11:26:57;94414.38;;;25.61;27.22
11971;BME280;6045;42.682;23.294;2024-03-06T11:29:27;94412.50;;;26.20;26.20
11971;BME280;6045;42.682;23.294;2024-03-06T11:32:06;94412.31;;;26.45;26.41
11971;BME280;6045;42.682;23.294;2024-03-06T11:34:35;94398.00;;;26.40;25.44
11971;BME280;6045;42.682;23.294;2024-03-06T11:37:04;94399.84;;;25.98;26.39
11971;BME280;6045;42.682;23.294;2024-03-06T11:39:36;94395.28;;;25.52;26.59
11971;BME280;6045;42.682;23.294;2024-03-06T11:42:05;94401.97;;;24.06;27.54
11971;BME280;6045;42.682;23.294;2024-03-06T11:44:34;94401.66;;;23.51;28.15
11971;BME280;6045;42.682;23.294;2024-03-06T11:47:02;94393.50;;;24.16;27.79
11971;BME280;6045;42.682;23.294;2024-03-06T11:49:30;94387.84;;;24.64;26.85
11971;BME280;6045;42.682;23.294;2024-03-06T11:52:01;94395.44;;;25.47;26.01
11971;BME280;6045;42.682;23.294;2024-03-06T11:54:30;94392.38;;;24.85;25.63
11971;BME280;6045;42.682;23.294;2024-03-06T11:56:57;94388.16;;;24.71;25.94
11971;BME280;6045;42.682;23.294;2024-03-06T11:59:27;94383.59;;;25.26;25.21
11971;BME280;6045;42.682;23.294;2024-03-06T12:01:55;94379.63;;;25.91;24.02
11971;BME280;6045;42.682;23.294;2024-03-06T12:04:24;94390.31;;;24.82;25.05
11971;BME280;6045;42.682;23.294;2024-03-06T12:06:51;94368.63;;;25.24;24.15
11971;BME280;6045;42.682;23.294;2024-03-06T12:09:18;94372.13;;;24.61;24.80
11971;BME280;6045;42.682;23.294;2024-03-06T12:11:45;94376.91;;;24.04;25.57
11971;BME280;6045;42.682;23.294;2024-03-06T12:14:17;94376.94;;;24.29;25.51
11971;BME280;6045;42.682;23.294;2024-03-06T12:16:54;94376.44;;;24.96;25.08
11971;BME280;6045;42.682;23.294;2024-03-06T12:19:22;94368.59;;;25.32;24.50
11971;BME280;6045;42.682;23.294;2024-03-06T12:21:48;94367.91;;;24.03;25.78
11971;BME280;6045;42.682;23.294;2024-03-06T12:24:16;94364.97;;;22.95;27.00
11971;BME280;6045;42.682;23.294;2024-03-06T12:26:44;94362.09;;;23.00;28.65
11971;BME280;6045;42.682;23.294;2024-03-06T12:29:17;94357.28;;;23.93;31.54
11971;BME280;6045;42.682;23.294;2024-03-06T12:31:46;94351.63;;;25.09;30.12
11971;BME280;6045;42.682;23.294;2024-03-06T12:34:14;94348.81;;;25.94;31.68
11971;BME280;6045;42.682;23.294;2024-03-06T12:36:42;94346.56;;;24.82;25.50
11971;BME280;6045;42.682;23.294;2024-03-06T12:39:09;94347.88;;;24.42;32.07
11971;BME280;6045;42.682;23.294;2024-03-06T12:41:39;94345.72;;;24.05;30.11
11971;BME280;6045;42.682;23.294;2024-03-06T12:44:06;94353.78;;;24.01;28.50
11971;BME280;6045;42.682;23.294;2024-03-06T12:46:33;94353.03;;;23.53;30.29
11971;BME280;6045;42.682;23.294;2024-03-06T12:49:02;94356.56;;;22.61;32.55
11971;BME280;6045;42.682;23.294;2024-03-06T12:51:29;94354.78;;;23.09;32.54
11971;BME280;6045;42.682;23.294;2024-03-06T12:53:55;94354.31;;;23.55;31.47
11971;BME280;6045;42.682;23.294;2024-03-06T12:56:22;94352.16;;;23.92;31.00
11971;BME280;6045;42.682;23.294;2024-03-06T12:58:50;94356.66;;;23.88;30.76
11971;BME280;6045;42.682;23.294;2024-03-06T13:01:17;94351.00;;;23.67;30.77
11971;BME280;6045;42.682;23.294;2024-03-06T13:03:45;94352.25;;;23.69;30.70
11971;BME280;6045;42.682;23.294;2024-03-06T13:06:14;94350.47;;;23.65;30.93
11971;BME280;6045;42.682;23.294;2024-03-06T13:08:41;94358.63;;;24.13;30.10